createdAt,value
2017-07-21T00:00:12.253Z,18.48
2017-07-21T00:01:21.456Z,18.47
2017-07-21T00:02:30.672Z,18.47
2017-07-21T00:03:39.560Z,18.51
2017-07-21T00:04:49.085Z,18.58
2017-07-21T00:05:58.293Z,18.52
2017-07-21T00:07:08.301Z,18.52
2017-07-21T00:08:17.178Z,18.5
2017-07-21T00:09:26.381Z,18.51
2017-07-21T00:10:35.589Z,18.39
2017-07-21T00:11:45.122Z,18.45
2017-07-21T00:12:55.273Z,18.52
2017-07-21T00:14:04.476Z,18.44
2017-07-21T00:15:14.006Z,18.41
2017-07-21T00:16:23.209Z,18.41
2017-07-21T00:17:33.065Z,18.32
2017-07-21T00:18:42.649Z,18.33
2017-07-21T00:19:51.855Z,18.32
2017-07-21T00:21:01.711Z,18.29
2017-07-21T00:22:11.893Z,18.33
2017-07-21T00:23:21.097Z,18.39
2017-07-21T00:24:29.980Z,18.42
2017-07-21T00:25:39.193Z,18.29
2017-07-21T00:26:48.718Z,18.29
2017-07-21T00:27:57.925Z,18.32
2017-07-21T00:29:07.458Z,18.2
2017-07-21T00:30:16.391Z,18.21
2017-07-21T00:31:26.263Z,18.11
2017-07-21T00:32:35.145Z,18.1
2017-07-21T00:33:44.029Z,18.18
2017-07-21T00:34:53.236Z,18.07
2017-07-21T00:36:02.795Z,18.15
2017-07-21T00:37:12.325Z,18.08
2017-07-21T00:38:21.859Z,18.07
2017-07-21T00:39:31.388Z,18.08
2017-07-21T00:40:40.621Z,18.02
2017-07-21T00:41:49.943Z,18.03
2017-07-21T00:42:59.804Z,18.02
2017-07-21T00:44:08.683Z,18.1
2017-07-21T00:45:18.532Z,18.1
2017-07-21T00:46:27.769Z,18
2017-07-21T00:47:36.798Z,17.99
2017-07-21T00:48:46.653Z,17.96
2017-07-21T00:49:56.503Z,17.97
2017-07-21T00:51:06.349Z,18
2017-07-21T00:52:15.876Z,17.96
2017-07-21T00:53:24.806Z,17.97
2017-07-21T00:54:33.691Z,17.95
2017-07-21T00:55:43.868Z,17.93
2017-07-21T00:56:52.751Z,17.84
2017-07-21T00:58:01.960Z,17.9
2017-07-21T00:59:11.656Z,17.9
2017-07-21T01:00:20.859Z,17.86
2017-07-21T01:01:30.385Z,17.87
2017-07-21T01:02:39.593Z,17.84
2017-07-21T01:03:49.122Z,17.9
2017-07-21T01:04:58.904Z,17.86
2017-07-21T01:06:08.108Z,17.93
2017-07-21T01:07:17.647Z,17.92
2017-07-21T01:08:27.176Z,17.84
2017-07-21T01:09:36.708Z,17.82
2017-07-21T01:10:46.388Z,17.75
2017-07-21T01:11:55.923Z,17.74
2017-07-21T01:13:04.814Z,17.7
2017-07-21T01:14:14.669Z,17.68
2017-07-21T01:15:23.883Z,17.63
2017-07-21T01:16:32.916Z,17.68
2017-07-21T01:17:42.449Z,17.55
2017-07-21T01:18:52.301Z,17.55
2017-07-21T01:20:01.513Z,17.54
2017-07-21T01:21:11.369Z,17.4
2017-07-21T01:22:21.475Z,17.43
2017-07-21T01:23:31.005Z,17.46
2017-07-21T01:24:40.213Z,17.41
2017-07-21T01:25:49.091Z,17.43
2017-07-21T01:26:58.300Z,17.37
2017-07-21T01:28:07.829Z,17.37
2017-07-21T01:29:17.353Z,17.4
2017-07-21T01:30:26.885Z,17.36
2017-07-21T01:31:36.409Z,17.31
2017-07-21T01:32:45.621Z,17.31
2017-07-21T01:33:54.877Z,17.18
2017-07-21T01:35:04.737Z,17.19
2017-07-21T01:36:14.265Z,17.16
2017-07-21T01:37:23.470Z,17.23
2017-07-21T01:38:32.999Z,17.25
2017-07-21T01:39:42.351Z,17.22
2017-07-21T01:40:51.558Z,17.15
2017-07-21T01:42:00.766Z,17.12
2017-07-21T01:43:10.626Z,17.18
2017-07-21T01:44:19.510Z,17.03
2017-07-21T01:45:28.873Z,16.98
2017-07-21T01:46:38.082Z,17
2017-07-21T01:47:47.281Z,16.97
2017-07-21T01:48:56.511Z,16.94
2017-07-21T01:50:05.716Z,16.93
2017-07-21T01:51:16.046Z,16.91
2017-07-21T01:52:25.248Z,16.96
2017-07-21T01:53:34.131Z,16.91
2017-07-21T01:54:43.335Z,16.93
2017-07-21T01:55:52.540Z,16.94
2017-07-21T01:57:01.893Z,16.93
2017-07-21T01:58:11.750Z,16.93
2017-07-21T01:59:20.956Z,16.91
2017-07-21T02:00:30.158Z,16.86
2017-07-21T02:01:40.016Z,16.78
2017-07-21T02:02:49.697Z,16.93
2017-07-21T02:03:59.872Z,16.91
2017-07-21T02:05:09.407Z,16.85
2017-07-21T02:06:18.945Z,16.75
2017-07-21T02:07:28.473Z,16.71
2017-07-21T02:08:38.001Z,16.75
2017-07-21T02:09:47.526Z,16.68
2017-07-21T02:10:56.733Z,16.75
2017-07-21T02:12:06.263Z,16.64
2017-07-21T02:13:15.144Z,16.6
2017-07-21T02:14:24.556Z,16.6
2017-07-21T02:15:33.766Z,16.56
2017-07-21T02:16:42.976Z,16.52
2017-07-21T02:17:52.189Z,16.56
2017-07-21T02:19:01.407Z,16.46
2017-07-21T02:20:11.031Z,16.43
2017-07-21T02:21:20.558Z,16.49
2017-07-21T02:22:29.762Z,16.45
2017-07-21T02:23:39.612Z,16.46
2017-07-21T02:24:48.817Z,16.46
2017-07-21T02:25:58.172Z,16.5
2017-07-21T02:27:07.052Z,16.52
2017-07-21T02:28:16.584Z,16.53
2017-07-21T02:29:25.468Z,16.5
2017-07-21T02:30:35.335Z,16.46
2017-07-21T02:31:45.686Z,16.34
2017-07-21T02:32:55.869Z,16.42
2017-07-21T02:34:05.726Z,16.24
2017-07-21T02:35:15.581Z,16.39
2017-07-21T02:36:24.464Z,16.2
2017-07-21T02:37:34.146Z,16.12
2017-07-21T02:38:44.334Z,16.14
2017-07-21T02:39:54.190Z,16.17
2017-07-21T02:41:03.078Z,16.09
2017-07-21T02:42:12.604Z,16.12
2017-07-21T02:43:22.568Z,16.02
2017-07-21T02:44:31.776Z,16.08
2017-07-21T02:45:41.304Z,16.09
2017-07-21T02:46:50.840Z,16.05
2017-07-21T02:48:00.367Z,16.01
2017-07-21T02:49:09.722Z,16.04
2017-07-21T02:50:19.580Z,16.04
2017-07-21T02:51:29.109Z,15.94
2017-07-21T02:52:38.322Z,16.01
2017-07-21T02:53:47.527Z,15.96
2017-07-21T02:54:57.306Z,15.97
2017-07-21T02:56:06.512Z,15.92
2017-07-21T02:57:15.721Z,15.89
2017-07-21T02:58:25.570Z,15.94
2017-07-21T02:59:35.107Z,15.92
2017-07-21T03:00:44.439Z,15.92
2017-07-21T03:01:54.300Z,15.89
2017-07-21T03:03:03.834Z,15.86
2017-07-21T03:04:13.041Z,15.87
2017-07-21T03:05:22.574Z,15.89
2017-07-21T03:06:31.556Z,15.8
2017-07-21T03:07:41.081Z,15.8
2017-07-21T03:08:50.606Z,15.78
2017-07-21T03:09:59.809Z,15.76
2017-07-21T03:11:09.336Z,15.74
2017-07-21T03:12:19.333Z,15.83
2017-07-21T03:13:28.535Z,15.65
2017-07-21T03:14:37.738Z,15.74
2017-07-21T03:15:47.271Z,15.78
2017-07-21T03:16:56.151Z,15.78
2017-07-21T03:18:05.776Z,15.75
2017-07-21T03:19:14.659Z,15.64
2017-07-21T03:20:23.879Z,15.71
2017-07-21T03:21:33.729Z,15.75
2017-07-21T03:22:43.903Z,15.67
2017-07-21T03:23:53.431Z,15.62
2017-07-21T03:25:02.648Z,15.69
2017-07-21T03:26:12.498Z,15.59
2017-07-21T03:27:21.388Z,15.59
2017-07-21T03:28:30.602Z,15.56
2017-07-21T03:29:39.862Z,15.59
2017-07-21T03:30:49.398Z,15.51
2017-07-21T03:31:59.915Z,15.51
2017-07-21T03:33:09.117Z,15.53
2017-07-21T03:34:18.001Z,15.57
2017-07-21T03:35:27.680Z,15.43
2017-07-21T03:36:37.211Z,15.5
2017-07-21T03:37:46.102Z,15.43
2017-07-21T03:38:56.287Z,15.47
2017-07-21T03:40:06.461Z,15.39
2017-07-21T03:41:15.846Z,15.43
2017-07-21T03:42:25.699Z,15.41
2017-07-21T03:43:34.905Z,15.46
2017-07-21T03:44:44.108Z,15.38
2017-07-21T03:45:53.311Z,15.38
2017-07-21T03:47:02.893Z,15.41
2017-07-21T03:48:12.424Z,15.36
2017-07-21T03:49:21.636Z,15.36
2017-07-21T03:50:31.489Z,15.38
2017-07-21T03:51:40.692Z,15.36
2017-07-21T03:52:50.042Z,15.31
2017-07-21T03:53:59.244Z,15.38
2017-07-21T03:55:09.135Z,15.31
2017-07-21T03:56:19.318Z,15.32
2017-07-21T03:57:29.167Z,15.29
2017-07-21T03:58:38.527Z,15.28
2017-07-21T03:59:48.062Z,15.31
2017-07-21T04:00:57.913Z,15.32
2017-07-21T04:02:07.440Z,15.38
2017-07-21T04:03:16.648Z,15.36
2017-07-21T04:04:26.012Z,15.32
2017-07-21T04:05:35.229Z,15.31
2017-07-21T04:06:44.756Z,15.35
2017-07-21T04:07:54.286Z,15.41
2017-07-21T04:09:03.517Z,15.23
2017-07-21T04:10:12.721Z,15.27
2017-07-21T04:11:21.927Z,15.32
2017-07-21T04:12:31.462Z,15.32
2017-07-21T04:13:40.662Z,15.36
2017-07-21T04:14:50.189Z,15.31
2017-07-21T04:16:00.196Z,15.29
2017-07-21T04:17:09.720Z,15.29
2017-07-21T04:18:19.569Z,15.32
2017-07-21T04:19:28.777Z,15.25
2017-07-21T04:20:37.661Z,15.28
2017-07-21T04:21:46.870Z,15.25
2017-07-21T04:22:56.401Z,15.38
2017-07-21T04:24:05.931Z,15.25
2017-07-21T04:25:15.457Z,15.28
2017-07-21T04:26:24.984Z,15.27
2017-07-21T04:27:34.632Z,15.28
2017-07-21T04:28:44.489Z,15.28
2017-07-21T04:29:54.029Z,15.27
2017-07-21T04:31:03.557Z,15.31
2017-07-21T04:32:12.771Z,15.31
2017-07-21T04:33:22.101Z,15.36
2017-07-21T04:34:30.980Z,15.36
2017-07-21T04:35:40.506Z,15.38
2017-07-21T04:36:49.710Z,15.43
2017-07-21T04:37:59.559Z,15.41
2017-07-21T04:39:09.238Z,15.29
2017-07-21T04:40:18.776Z,15.31
2017-07-21T04:41:28.305Z,15.38
2017-07-21T04:42:38.160Z,15.29
2017-07-21T04:43:47.691Z,15.2
2017-07-21T04:44:57.518Z,15.34
2017-07-21T04:46:06.405Z,15.28
2017-07-21T04:47:16.258Z,15.31
2017-07-21T04:48:25.476Z,15.29
2017-07-21T04:49:34.674Z,15.31
2017-07-21T04:50:43.984Z,15.38
2017-07-21T04:51:53.510Z,15.38
2017-07-21T04:53:02.712Z,15.44
2017-07-21T04:54:11.920Z,15.38
2017-07-21T04:55:21.448Z,15.36
2017-07-21T04:56:30.960Z,15.43
2017-07-21T04:57:40.167Z,15.43
2017-07-21T04:58:49.050Z,15.35
2017-07-21T04:59:58.580Z,15.5
2017-07-21T05:01:07.786Z,15.49
2017-07-21T05:02:17.474Z,15.53
2017-07-21T05:03:26.998Z,15.46
2017-07-21T05:04:36.529Z,15.35
2017-07-21T05:05:46.381Z,15.54
2017-07-21T05:06:55.911Z,15.39
2017-07-21T05:08:05.589Z,15.5
2017-07-21T05:09:15.439Z,15.49
2017-07-21T05:10:24.970Z,15.53
2017-07-21T05:11:34.504Z,15.56
2017-07-21T05:12:43.715Z,15.53
2017-07-21T05:13:53.623Z,15.53
2017-07-21T05:15:03.159Z,15.56
2017-07-21T05:16:12.371Z,15.59
2017-07-21T05:17:21.576Z,15.54
2017-07-21T05:18:30.468Z,15.56
2017-07-21T05:19:39.899Z,15.56
2017-07-21T05:20:49.747Z,15.62
2017-07-21T05:21:59.000Z,15.62
2017-07-21T05:23:08.209Z,15.67
2017-07-21T05:24:17.762Z,15.69
2017-07-21T05:25:27.818Z,15.71
2017-07-21T05:26:37.357Z,15.71
2017-07-21T05:27:46.242Z,15.69
2017-07-21T05:28:55.451Z,15.69
2017-07-21T05:30:04.336Z,15.67
2017-07-21T05:31:13.689Z,15.71
2017-07-21T05:32:23.864Z,15.69
2017-07-21T05:33:33.391Z,15.69
2017-07-21T05:34:42.599Z,15.68
2017-07-21T05:35:52.126Z,15.8
2017-07-21T05:37:02.036Z,15.84
2017-07-21T05:38:11.569Z,15.78
2017-07-21T05:39:21.422Z,15.84
2017-07-21T05:40:30.628Z,15.93
2017-07-21T05:41:40.158Z,15.78
2017-07-21T05:42:49.119Z,15.82
2017-07-21T05:43:58.649Z,16
2017-07-21T05:45:07.539Z,15.96
2017-07-21T05:46:16.745Z,15.93
2017-07-21T05:47:26.597Z,15.93
2017-07-21T05:48:36.429Z,16.01
2017-07-21T05:49:45.975Z,15.93
2017-07-21T05:50:55.180Z,15.93
2017-07-21T05:52:05.034Z,15.94
2017-07-21T05:53:14.569Z,16.01
2017-07-21T05:54:23.827Z,15.94
2017-07-21T05:55:32.717Z,16.08
2017-07-21T05:56:41.922Z,16.12
2017-07-21T05:57:51.124Z,16.15
2017-07-21T05:59:00.657Z,16.21
2017-07-21T06:00:10.067Z,16.09
2017-07-21T06:01:18.947Z,16.11
2017-07-21T06:02:28.151Z,16.27
2017-07-21T06:03:37.365Z,16.34
2017-07-21T06:04:46.575Z,16.38
2017-07-21T06:05:56.101Z,16.3
2017-07-21T06:07:05.312Z,16.34
2017-07-21T06:08:15.158Z,16.38
2017-07-21T06:09:24.369Z,16.43
2017-07-21T06:10:33.579Z,16.45
2017-07-21T06:11:42.844Z,16.45
2017-07-21T06:12:52.072Z,16.49
2017-07-21T06:14:01.605Z,16.46
2017-07-21T06:15:11.457Z,16.5
2017-07-21T06:16:20.340Z,16.64
2017-07-21T06:17:29.220Z,16.57
2017-07-21T06:18:38.103Z,16.61
2017-07-21T06:19:46.990Z,16.58
2017-07-21T06:20:56.519Z,16.61
2017-07-21T06:22:06.414Z,16.53
2017-07-21T06:23:15.771Z,16.58
2017-07-21T06:24:25.300Z,16.71
2017-07-21T06:25:34.508Z,16.67
2017-07-21T06:26:44.039Z,16.66
2017-07-21T06:27:53.568Z,16.73
2017-07-21T06:29:03.260Z,16.78
2017-07-21T06:30:12.146Z,16.81
2017-07-21T06:31:22.012Z,16.75
2017-07-21T06:32:31.215Z,16.71
2017-07-21T06:33:40.428Z,16.75
2017-07-21T06:34:49.419Z,16.7
2017-07-21T06:35:58.648Z,16.79
2017-07-21T06:37:08.176Z,16.78
2017-07-21T06:38:18.351Z,16.93
2017-07-21T06:39:27.241Z,16.86
2017-07-21T06:40:36.122Z,16.88
2017-07-21T06:41:45.347Z,16.93
2017-07-21T06:42:54.888Z,16.91
2017-07-21T06:44:04.438Z,16.97
2017-07-21T06:45:13.642Z,16.93
2017-07-21T06:46:22.950Z,17
2017-07-21T06:47:31.843Z,16.97
2017-07-21T06:48:41.050Z,16.94
2017-07-21T06:49:50.264Z,16.88
2017-07-21T06:50:59.478Z,16.94
2017-07-21T06:52:09.010Z,16.94
2017-07-21T06:53:18.546Z,16.93
2017-07-21T06:54:28.088Z,17.04
2017-07-21T06:55:37.619Z,17.08
2017-07-21T06:56:47.485Z,17.15
2017-07-21T06:57:56.741Z,17.15
2017-07-21T06:59:06.274Z,17.11
2017-07-21T07:00:15.158Z,17.14
2017-07-21T07:01:24.044Z,17.19
2017-07-21T07:02:33.253Z,17.19
2017-07-21T07:03:43.082Z,17.19
2017-07-21T07:04:51.967Z,17.25
2017-07-21T07:06:00.850Z,17.26
2017-07-21T07:07:10.710Z,17.28
2017-07-21T07:08:19.645Z,17.33
2017-07-21T07:09:28.955Z,17.31
2017-07-21T07:10:38.163Z,17.34
2017-07-21T07:11:47.052Z,17.34
2017-07-21T07:12:56.581Z,17.33
2017-07-21T07:14:06.112Z,17.4
2017-07-21T07:15:15.614Z,17.41
2017-07-21T07:16:25.159Z,17.44
2017-07-21T07:17:34.429Z,17.41
2017-07-21T07:18:44.284Z,17.54
2017-07-21T07:19:53.493Z,17.55
2017-07-21T07:21:02.705Z,17.56
2017-07-21T07:22:12.262Z,17.55
2017-07-21T07:23:21.473Z,17.54
2017-07-21T07:24:30.678Z,17.63
2017-07-21T07:25:39.893Z,17.62
2017-07-21T07:26:49.104Z,17.59
2017-07-21T07:27:58.312Z,17.7
2017-07-21T07:29:07.844Z,17.74
2017-07-21T07:30:17.049Z,17.7
2017-07-21T07:31:26.405Z,17.74
2017-07-21T07:32:35.621Z,17.79
2017-07-21T07:33:44.834Z,17.75
2017-07-21T07:34:54.042Z,17.82
2017-07-21T07:36:03.301Z,17.9
2017-07-21T07:37:13.477Z,17.9
2017-07-21T07:38:23.010Z,17.87
2017-07-21T07:39:32.543Z,17.95
2017-07-21T07:40:41.757Z,17.96
2017-07-21T07:41:51.286Z,17.97
2017-07-21T07:43:00.497Z,17.99
2017-07-21T07:44:09.710Z,17.95
2017-07-21T07:45:19.247Z,17.97
2017-07-21T07:46:29.023Z,17.99
2017-07-21T07:47:37.913Z,18.07
2017-07-21T07:48:47.453Z,18.08
2017-07-21T07:49:56.659Z,18.02
2017-07-21T07:51:06.214Z,18.18
2017-07-21T07:52:15.471Z,18.26
2017-07-21T07:53:24.683Z,18.18
2017-07-21T07:54:34.551Z,18.18
2017-07-21T07:55:43.760Z,18.18
2017-07-21T07:56:52.649Z,18.15
2017-07-21T07:58:01.920Z,18.25
2017-07-21T07:59:11.131Z,18.1
2017-07-21T08:00:20.019Z,18.27
2017-07-21T08:01:29.553Z,18.08
2017-07-21T08:02:38.766Z,18.18
2017-07-21T08:03:48.030Z,18.15
2017-07-21T08:04:57.564Z,18.26
2017-07-21T08:06:06.452Z,18.25
2017-07-21T08:07:15.656Z,18.14
2017-07-21T08:08:24.873Z,18.18
2017-07-21T08:09:34.183Z,18.32
2017-07-21T08:10:43.955Z,18.37
2017-07-21T08:11:53.162Z,18.44
2017-07-21T08:13:03.020Z,18.47
2017-07-21T08:14:12.228Z,18.48
2017-07-21T08:15:21.594Z,18.55
2017-07-21T08:16:31.449Z,18.48
2017-07-21T08:17:40.984Z,18.44
2017-07-21T08:18:50.516Z,18.58
2017-07-21T08:20:00.049Z,18.51
2017-07-21T08:21:10.002Z,18.6
2017-07-21T08:22:18.888Z,18.67
2017-07-21T08:23:27.770Z,18.72
2017-07-21T08:24:36.975Z,18.65
2017-07-21T08:25:46.529Z,18.67
2017-07-21T08:26:55.888Z,18.7
2017-07-21T08:28:05.096Z,18.72
2017-07-21T08:29:14.971Z,18.75
2017-07-21T08:30:23.854Z,18.69
2017-07-21T08:31:33.093Z,18.75
2017-07-21T08:32:42.552Z,18.8
2017-07-21T08:33:51.772Z,18.98
2017-07-21T08:35:00.654Z,18.85
2017-07-21T08:36:09.866Z,18.92
2017-07-21T08:37:19.079Z,18.87
2017-07-21T08:38:28.541Z,18.98
2017-07-21T08:39:37.760Z,18.95
2017-07-21T08:40:46.965Z,18.91
2017-07-21T08:41:56.496Z,18.9
2017-07-21T08:43:05.703Z,18.94
2017-07-21T08:44:15.866Z,18.98
2017-07-21T08:45:25.400Z,19.02
2017-07-21T08:46:34.948Z,19.07
2017-07-21T08:47:44.152Z,19.1
2017-07-21T08:48:53.684Z,19.08
2017-07-21T08:50:02.991Z,19.11
2017-07-21T08:51:12.524Z,19.21
2017-07-21T08:52:22.066Z,19.11
2017-07-21T08:53:31.921Z,19.32
2017-07-21T08:54:41.136Z,19.29
2017-07-21T08:55:51.051Z,19.18
2017-07-21T08:56:59.936Z,19.23
2017-07-21T08:58:09.142Z,19.31
2017-07-21T08:59:18.685Z,19.37
2017-07-21T09:00:28.542Z,19.29
2017-07-21T09:01:38.502Z,19.39
2017-07-21T09:02:47.709Z,19.39
2017-07-21T09:03:57.027Z,19.39
2017-07-21T09:05:06.233Z,19.39
2017-07-21T09:06:15.447Z,19.47
2017-07-21T09:07:24.976Z,19.46
2017-07-21T09:08:33.866Z,19.5
2017-07-21T09:09:43.456Z,19.66
2017-07-21T09:10:52.485Z,19.68
2017-07-21T09:12:01.438Z,19.69
2017-07-21T09:13:10.944Z,19.59
2017-07-21T09:14:20.799Z,19.61
2017-07-21T09:15:30.329Z,19.61
2017-07-21T09:16:39.539Z,19.71
2017-07-21T09:17:48.422Z,19.73
2017-07-21T09:18:57.645Z,19.76
2017-07-21T09:20:06.858Z,19.73
2017-07-21T09:21:16.763Z,19.74
2017-07-21T09:22:26.312Z,19.69
2017-07-21T09:23:35.564Z,19.74
2017-07-21T09:24:44.778Z,19.8
2017-07-21T09:25:54.863Z,19.78
2017-07-21T09:27:04.387Z,19.91
2017-07-21T09:28:13.679Z,19.87
2017-07-21T09:29:22.604Z,20.06
2017-07-21T09:30:31.939Z,20.13
2017-07-21T09:31:41.473Z,20.31
2017-07-21T09:32:50.691Z,20.33
2017-07-21T09:34:00.221Z,20.36
2017-07-21T09:35:10.186Z,20.33
2017-07-21T09:36:20.357Z,20.38
2017-07-21T09:37:43.035Z,20.48
2017-07-21T09:38:52.411Z,20.48
2017-07-21T09:40:02.669Z,20.52
2017-07-21T09:41:55.450Z,20.55
2017-07-21T09:43:06.611Z,20.66
2017-07-21T09:44:16.876Z,20.58
2017-07-21T09:45:26.506Z,20.66
2017-07-21T09:46:36.028Z,20.64
2017-07-21T09:47:44.933Z,20.59
2017-07-21T09:48:53.909Z,20.72
2017-07-21T09:50:03.731Z,20.7
2017-07-21T09:51:13.095Z,20.72
2017-07-21T09:52:22.199Z,20.7
2017-07-21T09:53:31.504Z,20.69
2017-07-21T09:54:40.992Z,20.58
2017-07-21T09:55:50.586Z,20.58
2017-07-21T09:56:59.829Z,20.48
2017-07-21T09:58:09.419Z,20.54
2017-07-21T09:59:19.269Z,20.35
2017-07-21T10:00:28.673Z,20.32
2017-07-21T10:01:38.854Z,20.32
2017-07-21T10:02:47.924Z,20.36
2017-07-21T10:04:27.194Z,20.38
2017-07-21T10:05:36.206Z,20.26
2017-07-21T10:06:45.587Z,20.31
2017-07-21T10:07:54.589Z,20.31
2017-07-21T10:09:04.547Z,20.52
2017-07-21T10:10:14.767Z,20.39
2017-07-21T10:11:25.066Z,20.47
2017-07-21T10:12:34.408Z,20.57
2017-07-21T10:13:43.898Z,20.62
2017-07-21T10:14:53.657Z,20.67
2017-07-21T10:16:02.686Z,20.64
2017-07-21T10:17:12.343Z,20.74
2017-07-21T10:18:22.287Z,20.82
2017-07-21T10:19:31.943Z,20.76
2017-07-21T10:20:41.850Z,20.73
2017-07-21T10:21:51.229Z,20.74
2017-07-21T10:23:00.653Z,20.87
2017-07-21T10:24:09.679Z,20.97
2017-07-21T10:25:19.433Z,21.07
2017-07-21T10:26:29.479Z,21.22
2017-07-21T10:27:39.389Z,21.27
2017-07-21T10:28:49.233Z,21.27
2017-07-21T10:29:59.255Z,21.29
2017-07-21T10:31:08.663Z,21.29
2017-07-21T10:32:18.376Z,21.43
2017-07-21T10:33:28.498Z,21.47
2017-07-21T10:34:38.202Z,21.67
2017-07-21T10:35:47.595Z,21.72
2017-07-21T10:36:56.913Z,21.71
2017-07-21T10:38:07.054Z,21.88
2017-07-21T10:39:16.819Z,21.91
2017-07-21T10:40:25.806Z,21.98
2017-07-21T10:41:35.188Z,22.02
2017-07-21T10:42:45.181Z,21.99
2017-07-21T10:43:54.543Z,22.03
2017-07-21T10:45:05.844Z,22.03
2017-07-21T10:46:17.325Z,22.02
2017-07-21T10:47:27.827Z,21.92
2017-07-21T10:48:37.380Z,21.88
2017-07-21T10:49:47.550Z,21.75
2017-07-21T10:50:56.757Z,21.79
2017-07-21T10:52:05.642Z,21.72
2017-07-21T10:53:15.182Z,21.74
2017-07-21T10:54:24.712Z,21.8
2017-07-21T10:55:34.295Z,21.65
2017-07-21T10:56:43.865Z,21.49
2017-07-21T10:57:53.422Z,21.47
2017-07-21T10:59:02.638Z,21.53
2017-07-21T11:00:11.876Z,21.46
2017-07-21T11:01:21.211Z,21.62
2017-07-21T11:02:30.424Z,21.74
2017-07-21T11:03:40.284Z,21.9
2017-07-21T11:04:49.844Z,21.9
2017-07-21T11:05:59.754Z,22
2017-07-21T11:07:09.118Z,22
2017-07-21T11:08:18.340Z,21.82
2017-07-21T11:09:27.954Z,21.88
2017-07-21T11:10:37.942Z,21.88
2017-07-21T11:11:46.963Z,21.84
2017-07-21T11:12:57.051Z,21.92
2017-07-21T11:14:06.389Z,21.82
2017-07-21T11:15:16.129Z,21.83
2017-07-21T11:16:25.133Z,21.98
2017-07-21T11:17:35.208Z,22.21
2017-07-21T11:18:45.405Z,22.42
2017-07-21T11:19:56.477Z,22.52
2017-07-21T11:21:06.475Z,22.55
2017-07-21T11:22:16.122Z,22.62
2017-07-21T11:23:26.181Z,22.61
2017-07-21T11:24:36.381Z,22.65
2017-07-21T11:25:45.737Z,22.64
2017-07-21T11:26:55.129Z,22.62
2017-07-21T11:28:04.433Z,22.47
2017-07-21T11:29:14.215Z,22.37
2017-07-21T11:30:24.106Z,22.35
2017-07-21T11:31:33.323Z,22.49
2017-07-21T11:32:43.181Z,22.58
2017-07-21T11:33:52.715Z,22.64
2017-07-21T11:35:02.215Z,22.64
2017-07-21T11:36:12.332Z,22.75
2017-07-21T11:37:21.654Z,22.72
2017-07-21T11:38:31.674Z,22.64
2017-07-21T11:39:42.126Z,22.58
2017-07-21T11:40:55.462Z,22.6
2017-07-21T11:42:04.964Z,22.58
2017-07-21T11:43:14.657Z,22.52
2017-07-21T11:44:24.184Z,22.39
2017-07-21T11:45:34.187Z,22.37
2017-07-21T11:46:47.529Z,22.45
2017-07-21T11:47:57.843Z,22.4
2017-07-21T11:49:07.750Z,22.39
2017-07-21T11:50:17.427Z,22.42
2017-07-21T11:51:27.164Z,22.4
2017-07-21T11:52:44.664Z,22.46
2017-07-21T11:53:54.274Z,22.51
2017-07-21T11:55:03.643Z,22.52
2017-07-21T11:56:13.215Z,22.57
2017-07-21T11:57:22.592Z,22.49
2017-07-21T11:58:33.163Z,22.54
2017-07-21T11:59:42.720Z,22.49
2017-07-21T12:00:52.113Z,22.54
2017-07-21T12:02:02.927Z,22.39
2017-07-21T12:03:11.913Z,22.33
2017-07-21T12:04:21.419Z,22.24
2017-07-21T12:06:00.786Z,22.18
2017-07-21T12:07:14.892Z,22.33
2017-07-21T12:08:25.022Z,22.35
2017-07-21T12:09:34.698Z,22.55
2017-07-21T12:10:44.328Z,22.6
2017-07-21T12:11:54.366Z,22.68
2017-07-21T12:13:04.499Z,22.76
2017-07-21T12:14:13.586Z,23.02
2017-07-21T12:15:23.560Z,23.22
2017-07-21T12:16:33.411Z,23.38
2017-07-21T12:17:43.081Z,23.5
2017-07-21T12:18:52.870Z,23.68
2017-07-21T12:20:02.297Z,23.88
2017-07-21T12:21:12.017Z,23.91
2017-07-21T12:22:22.010Z,23.88
2017-07-21T12:23:31.011Z,23.91
2017-07-21T12:24:40.375Z,24.08
2017-07-21T12:25:50.089Z,24.21
2017-07-21T12:26:59.421Z,24.16
2017-07-21T12:28:09.193Z,24.31
2017-07-21T12:29:18.955Z,24.4
2017-07-21T12:30:28.921Z,24.34
2017-07-21T12:31:38.628Z,24.4
2017-07-21T12:32:48.017Z,24.32
2017-07-21T12:33:57.652Z,24.35
2017-07-21T12:35:07.353Z,24.4
2017-07-21T12:36:17.343Z,24.43
2017-07-21T12:37:27.039Z,24.58
2017-07-21T12:38:36.740Z,24.65
2017-07-21T12:39:46.652Z,24.87
2017-07-21T12:40:55.680Z,24.67
2017-07-21T12:42:05.296Z,24.78
2017-07-21T12:43:14.718Z,24.8
2017-07-21T12:44:24.050Z,24.96
2017-07-21T12:45:33.282Z,25.03
2017-07-21T12:46:42.627Z,25.02
2017-07-21T12:47:52.341Z,25.14
2017-07-21T12:49:01.723Z,25.14
2017-07-21T12:50:11.152Z,24.99
2017-07-21T12:51:20.785Z,24.81
2017-07-21T12:52:30.091Z,24.4
2017-07-21T12:53:40.363Z,24.32
2017-07-21T12:54:49.719Z,23.85
2017-07-21T12:55:59.703Z,23.68
2017-07-21T12:57:09.263Z,23.75
2017-07-21T12:58:19.611Z,23.83
2017-07-21T12:59:28.947Z,23.93
2017-07-21T13:00:39.304Z,23.97
2017-07-21T13:01:48.650Z,23.94
2017-07-21T13:02:58.010Z,23.97
2017-07-21T13:04:07.964Z,24.08
2017-07-21T13:05:17.362Z,24.05
2017-07-21T13:06:27.024Z,24.06
2017-07-21T13:07:36.382Z,24.2
2017-07-21T13:08:45.535Z,24.22
2017-07-21T13:09:54.850Z,24.22
2017-07-21T13:11:04.973Z,24.13
2017-07-21T13:12:14.616Z,24.05
2017-07-21T13:13:24.345Z,24.02
2017-07-21T13:14:34.093Z,24.08
2017-07-21T13:15:43.587Z,24.27
2017-07-21T13:16:53.297Z,24.37
2017-07-21T13:18:02.832Z,24.43
2017-07-21T13:19:12.394Z,24.31
2017-07-21T13:20:21.708Z,24.13
2017-07-21T13:21:31.520Z,24.02
2017-07-21T13:22:40.753Z,24.12
2017-07-21T13:23:50.292Z,24.21
2017-07-21T13:24:59.835Z,24.37
2017-07-21T13:26:39.171Z,24.47
2017-07-21T13:27:49.588Z,24.71
2017-07-21T13:28:59.809Z,24.95
2017-07-21T13:30:09.895Z,25.14
2017-07-21T13:31:19.303Z,25.23
2017-07-21T13:32:28.802Z,25.35
2017-07-21T13:33:38.289Z,25.42
2017-07-21T13:34:48.819Z,25.35
2017-07-21T13:35:58.804Z,25.55
2017-07-21T13:37:09.249Z,25.69
2017-07-21T13:38:19.117Z,25.64
2017-07-21T13:39:29.097Z,25.6
2017-07-21T13:40:38.471Z,25.65
2017-07-21T13:41:49.043Z,25.79
2017-07-21T13:42:58.318Z,26.02
2017-07-21T13:44:08.318Z,26.09
2017-07-21T13:45:17.595Z,26.39
2017-07-21T13:46:26.929Z,26.48
2017-07-21T13:47:36.941Z,26.48
2017-07-21T13:48:46.462Z,26.29
2017-07-21T13:49:56.082Z,26.39
2017-07-21T13:51:05.226Z,26.45
2017-07-21T13:52:14.777Z,26.55
2017-07-21T13:53:24.509Z,26.76
2017-07-21T13:54:33.878Z,26.77
2017-07-21T13:55:42.840Z,26.99
2017-07-21T13:56:52.391Z,26.95
2017-07-21T13:58:01.939Z,26.91
2017-07-21T13:59:11.814Z,26.73
2017-07-21T14:00:22.227Z,26.55
2017-07-21T14:01:31.343Z,26.4
2017-07-21T14:02:41.295Z,26.33
2017-07-21T14:03:50.191Z,26.36
2017-07-21T14:04:59.733Z,26.33
2017-07-21T14:06:09.758Z,26.17
2017-07-21T14:07:18.653Z,26.12
2017-07-21T14:08:27.870Z,25.99
2017-07-21T14:09:37.105Z,25.92
2017-07-21T14:10:46.004Z,25.87
2017-07-21T14:11:55.653Z,25.67
2017-07-21T14:13:05.202Z,25.57
2017-07-21T14:14:14.750Z,25.39
2017-07-21T14:15:23.966Z,25.36
2017-07-21T14:16:33.506Z,25.3
2017-07-21T14:17:43.060Z,25.27
2017-07-21T14:18:52.276Z,25.35
2017-07-21T14:20:02.062Z,25.3
2017-07-21T14:21:11.290Z,25.32
2017-07-21T14:22:20.507Z,25.3
2017-07-21T14:23:30.143Z,25.45
2017-07-21T14:24:39.360Z,25.52
2017-07-21T14:25:48.373Z,25.62
2017-07-21T14:26:57.700Z,25.88
2017-07-21T14:28:07.248Z,25.85
2017-07-21T14:29:16.845Z,25.92
2017-07-21T14:30:26.405Z,26.02
2017-07-21T14:31:35.622Z,26.02
2017-07-21T14:32:45.164Z,26.01
2017-07-21T14:33:54.061Z,26.02
2017-07-21T14:35:03.804Z,25.95
2017-07-21T14:36:12.709Z,25.88
2017-07-21T14:37:22.580Z,25.9
2017-07-21T14:38:31.801Z,26.01
2017-07-21T14:39:41.050Z,26.12
2017-07-21T14:40:49.964Z,26.32
2017-07-21T14:41:59.842Z,26.67
2017-07-21T14:43:09.160Z,26.8
2017-07-21T14:44:18.708Z,27.03
2017-07-21T14:45:28.266Z,27.02
2017-07-21T14:46:37.830Z,27.22
2017-07-21T14:47:46.732Z,27.46
2017-07-21T14:48:56.601Z,27.63
2017-07-21T14:50:05.840Z,27.77
2017-07-21T14:51:15.399Z,27.74
2017-07-21T14:52:24.731Z,27.72
2017-07-21T14:53:34.288Z,27.47
2017-07-21T14:54:43.513Z,27.13
2017-07-21T14:55:53.111Z,26.88
2017-07-21T14:57:02.191Z,26.73
2017-07-21T14:58:11.600Z,26.84
2017-07-21T14:59:21.019Z,26.88
2017-07-21T15:00:30.089Z,26.62